Ann Arbor, MI

3:36 PM EST on December 20, 2014 (GMT -0500)
Walker Briar Works | Change Station
CLOSE
Current Station
Personal Weather Station
Location: Ann Arbor, MI
Elevation: 961 ft
Nearby Weather Stations

Elev 961 ft 42.26 °N, 83.77 °W | Updated 6 minutes ago

Overcast
Overcast
29.5 °F
Feels Like 30 °F
N
0.0
Wind Variable Wind from East
Gusts 1.6 mph

Today
High -- | Low -- °F
--% Chance of Precip.
Yesterday
High -- | Low -- °F
Precip. -- in
8:00 AM 5:05 PM
Waning Crescent, 2% visible
Pressure 30.28 in
Visibility 10.0 miles
Clouds Overcast 2500 ft
Windchill 30 °F
Dew Point 22 °F
Humidity 73%
Rainfall 0.00 in
Snow Depth Not available.
UV 0 out of 12
Pollen .10 out of 12
Air Quality Not available.
Flu Activity Not available.
METAR KARB 201953Z 00000KT 10SM OVC025 M01/M06 A3025 RMK AO2 SLP253 T10111061

More Conditions Fewer Conditions

Pressure 30.28 in
Visibility 10.0 miles
Clouds Overcast 2500 ft
Windchill 30 °F
Dew Point 22 °F
Humidity 73%
Rainfall 0.00 in
Snow Depth Not available.
UV 0 out of 12
Pollen .10 out of 12
Air Quality Not available.
Flu Activity Not available.
METAR KARB 201953Z 00000KT 10SM OVC025 M01/M06 A3025 RMK AO2 SLP253 T10111061

More Conditions Fewer Conditions

10-Day Weather Forecast

Almanac

Astronomy

Dec. 20, 2014 Rise Set
Actual Time
Civil Twilight
Nautical Twilight
Astronomical Twilight
Moon
Length of Visible Light
Length of Day
Tomorrow will be .
, % of the Moon is Illuminated

Today's Extremes

State Highs State Lows

Community

WunderPhotos

Upload Photos

1,779,270 photos uploaded!

WunderBlogs® & News

Nearby

Air Quality

  Air Quality AQ Index Pollutant
Not available.

Snow Depth

Station Depth Elevation

Earthquake Activity

City Distance Mag. Time & Date
Minimum magnitude displayed is 2.5.

Coastal Water Temperatures

Place Temperature

Nearby Weather Stations